Terminal Aerodrome Forecast
Issued by NWS

Home | Current Version | Previous Version | Text Only | Print | Product List | Glossary On
Versions: 1 2 3 4 5 6 7 8 9 10 11 12 13 14 15
000
FTUS45 KFGZ 291120
TAFPGA
TAF
KPGA 291120Z 2912/3012 29008KT P6SM BKN090 BKN110
     FM291600 34012G24KT P6SM SCT090 BKN110
     FM300300 32007KT P6SM SCT110=

USA.gov is the U.S. government's official web portal to all federal, state and local government web resources and services.